sensor_id;sensor_type;location;lat;lon;timestamp;P1;durP1;ratioP1;P2;durP2;ratioP2
24259;SDS011;12384;48.112;18.418;2023-06-04T00:00:24;10.70;;;10.00;;
24259;SDS011;12384;48.112;18.418;2023-06-04T00:02:55;10.13;;;9.53;;
24259;SDS011;12384;48.112;18.418;2023-06-04T00:05:24;10.10;;;9.50;;
24259;SDS011;12384;48.112;18.418;2023-06-04T00:07:53;9.93;;;9.33;;
24259;SDS011;12384;48.112;18.418;2023-06-04T00:10:21;9.13;;;8.63;;
24259;SDS011;12384;48.112;18.418;2023-06-04T00:12:50;9.50;;;8.90;;
24259;SDS011;12384;48.112;18.418;2023-06-04T00:15:19;10.00;;;9.30;;
24259;SDS011;12384;48.112;18.418;2023-06-04T00:17:48;9.63;;;9.03;;
24259;SDS011;12384;48.112;18.418;2023-06-04T00:20:19;9.83;;;9.30;;
24259;SDS011;12384;48.112;18.418;2023-06-04T00:22:48;10.10;;;9.50;;
24259;SDS011;12384;48.112;18.418;2023-06-04T00:25:17;10.30;;;9.60;;
24259;SDS011;12384;48.112;18.418;2023-06-04T00:27:45;9.77;;;9.27;;
24259;SDS011;12384;48.112;18.418;2023-06-04T00:30:14;9.93;;;9.33;;
24259;SDS011;12384;48.112;18.418;2023-06-04T00:32:43;10.40;;;9.80;;
24259;SDS011;12384;48.112;18.418;2023-06-04T00:35:13;9.90;;;9.40;;
24259;SDS011;12384;48.112;18.418;2023-06-04T00:37:44;10.33;;;9.70;;
24259;SDS011;12384;48.112;18.418;2023-06-04T00:40:13;10.07;;;9.37;;
24259;SDS011;12384;48.112;18.418;2023-06-04T00:42:41;9.83;;;9.33;;
24259;SDS011;12384;48.112;18.418;2023-06-04T00:45:11;10.07;;;9.47;;
24259;SDS011;12384;48.112;18.418;2023-06-04T00:47:42;9.77;;;9.07;;
24259;SDS011;12384;48.112;18.418;2023-06-04T00:50:12;9.60;;;9.00;;
24259;SDS011;12384;48.112;18.418;2023-06-04T00:52:41;9.43;;;8.80;;
24259;SDS011;12384;48.112;18.418;2023-06-04T00:55:12;10.13;;;9.37;;
24259;SDS011;12384;48.112;18.418;2023-06-04T00:57:45;9.93;;;9.33;;
24259;SDS011;12384;48.112;18.418;2023-06-04T01:00:14;10.10;;;9.40;;
24259;SDS011;12384;48.112;18.418;2023-06-04T01:02:43;10.60;;;9.90;;
24259;SDS011;12384;48.112;18.418;2023-06-04T01:05:20;9.93;;;9.23;;
24259;SDS011;12384;48.112;18.418;2023-06-04T01:08:02;9.90;;;9.30;;
24259;SDS011;12384;48.112;18.418;2023-06-04T01:10:32;9.60;;;9.00;;
24259;SDS011;12384;48.112;18.418;2023-06-04T01:13:01;10.13;;;9.53;;
24259;SDS011;12384;48.112;18.418;2023-06-04T01:15:30;9.60;;;8.90;;
24259;SDS011;12384;48.112;18.418;2023-06-04T01:17:59;9.73;;;9.03;;
24259;SDS011;12384;48.112;18.418;2023-06-04T01:20:33;9.17;;;8.67;;
24259;SDS011;12384;48.112;18.418;2023-06-04T01:23:14;10.23;;;9.63;;
24259;SDS011;12384;48.112;18.418;2023-06-04T01:25:48;10.43;;;9.83;;
24259;SDS011;12384;48.112;18.418;2023-06-04T01:28:17;9.37;;;8.77;;
24259;SDS011;12384;48.112;18.418;2023-06-04T01:30:47;9.70;;;9.10;;
24259;SDS011;12384;48.112;18.418;2023-06-04T01:33:18;9.10;;;8.60;;
24259;SDS011;12384;48.112;18.418;2023-06-04T01:35:48;9.87;;;9.27;;
24259;SDS011;12384;48.112;18.418;2023-06-04T01:38:18;9.27;;;8.77;;
24259;SDS011;12384;48.112;18.418;2023-06-04T01:40:47;9.23;;;8.73;;
24259;SDS011;12384;48.112;18.418;2023-06-04T01:43:17;9.40;;;8.80;;
24259;SDS011;12384;48.112;18.418;2023-06-04T01:45:46;9.50;;;8.90;;
24259;SDS011;12384;48.112;18.418;2023-06-04T01:48:15;9.60;;;9.00;;
24259;SDS011;12384;48.112;18.418;2023-06-04T01:50:44;10.03;;;9.33;;
24259;SDS011;12384;48.112;18.418;2023-06-04T01:53:13;9.77;;;9.17;;
24259;SDS011;12384;48.112;18.418;2023-06-04T01:55:43;10.00;;;9.40;;
24259;SDS011;12384;48.112;18.418;2023-06-04T01:58:12;10.13;;;9.53;;
24259;SDS011;12384;48.112;18.418;2023-06-04T02:00:44;9.30;;;8.80;;
24259;SDS011;12384;48.112;18.418;2023-06-04T02:03:13;9.47;;;8.93;;
24259;SDS011;12384;48.112;18.418;2023-06-04T02:05:42;9.43;;;8.80;;
24259;SDS011;12384;48.112;18.418;2023-06-04T02:08:14;10.10;;;9.50;;
24259;SDS011;12384;48.112;18.418;2023-06-04T02:10:47;9.80;;;9.20;;
24259;SDS011;12384;48.112;18.418;2023-06-04T02:13:16;9.30;;;8.80;;
24259;SDS011;12384;48.112;18.418;2023-06-04T02:15:45;9.50;;;8.90;;
24259;SDS011;12384;48.112;18.418;2023-06-04T02:18:14;9.43;;;8.80;;
24259;SDS011;12384;48.112;18.418;2023-06-04T02:20:45;9.13;;;8.63;;
24259;SDS011;12384;48.112;18.418;2023-06-04T02:23:14;9.90;;;8.87;;
24259;SDS011;12384;48.112;18.418;2023-06-04T02:25:46;9.00;;;8.20;;
24259;SDS011;12384;48.112;18.418;2023-06-04T02:28:18;9.53;;;8.90;;
24259;SDS011;12384;48.112;18.418;2023-06-04T02:30:47;9.40;;;8.80;;
24259;SDS011;12384;48.112;18.418;2023-06-04T02:33:15;9.17;;;8.57;;
24259;SDS011;12384;48.112;18.418;2023-06-04T02:35:44;9.60;;;9.00;;
24259;SDS011;12384;48.112;18.418;2023-06-04T02:38:13;8.83;;;8.33;;
24259;SDS011;12384;48.112;18.418;2023-06-04T02:40:42;9.33;;;8.70;;
24259;SDS011;12384;48.112;18.418;2023-06-04T02:43:13;9.70;;;9.10;;
24259;SDS011;12384;48.112;18.418;2023-06-04T02:45:42;9.53;;;8.90;;
24259;SDS011;12384;48.112;18.418;2023-06-04T02:48:11;9.53;;;8.90;;
24259;SDS011;12384;48.112;18.418;2023-06-04T02:50:40;10.07;;;9.27;;
24259;SDS011;12384;48.112;18.418;2023-06-04T02:53:10;9.80;;;9.00;;
24259;SDS011;12384;48.112;18.418;2023-06-04T02:55:39;8.90;;;8.40;;
24259;SDS011;12384;48.112;18.418;2023-06-04T02:58:08;9.47;;;8.77;;
24259;SDS011;12384;48.112;18.418;2023-06-04T03:00:38;9.50;;;8.90;;
24259;SDS011;12384;48.112;18.418;2023-06-04T03:03:07;9.77;;;9.17;;
24259;SDS011;12384;48.112;18.418;2023-06-04T03:05:36;9.33;;;8.73;;
24259;SDS011;12384;48.112;18.418;2023-06-04T03:08:08;9.43;;;8.73;;
24259;SDS011;12384;48.112;18.418;2023-06-04T03:10:38;8.93;;;8.33;;
24259;SDS011;12384;48.112;18.418;2023-06-04T03:13:06;9.77;;;9.07;;
24259;SDS011;12384;48.112;18.418;2023-06-04T03:15:35;9.60;;;9.00;;
24259;SDS011;12384;48.112;18.418;2023-06-04T03:18:07;9.80;;;9.13;;
24259;SDS011;12384;48.112;18.418;2023-06-04T03:20:36;9.60;;;8.90;;
24259;SDS011;12384;48.112;18.418;2023-06-04T03:23:05;9.83;;;9.13;;
24259;SDS011;12384;48.112;18.418;2023-06-04T03:25:34;9.40;;;8.90;;
24259;SDS011;12384;48.112;18.418;2023-06-04T03:28:03;9.37;;;8.80;;
24259;SDS011;12384;48.112;18.418;2023-06-04T03:30:32;9.63;;;9.03;;
24259;SDS011;12384;48.112;18.418;2023-06-04T03:33:03;9.47;;;8.87;;
24259;SDS011;12384;48.112;18.418;2023-06-04T03:35:34;9.57;;;8.97;;
24259;SDS011;12384;48.112;18.418;2023-06-04T03:38:03;9.93;;;9.23;;
24259;SDS011;12384;48.112;18.418;2023-06-04T03:40:32;9.80;;;9.20;;
24259;SDS011;12384;48.112;18.418;2023-06-04T03:43:03;9.43;;;8.60;;
24259;SDS011;12384;48.112;18.418;2023-06-04T03:45:33;9.40;;;8.80;;
24259;SDS011;12384;48.112;18.418;2023-06-04T03:48:02;9.93;;;9.17;;
24259;SDS011;12384;48.112;18.418;2023-06-04T03:50:35;9.23;;;8.73;;
24259;SDS011;12384;48.112;18.418;2023-06-04T03:53:05;9.93;;;9.23;;
24259;SDS011;12384;48.112;18.418;2023-06-04T03:55:35;9.60;;;9.00;;
24259;SDS011;12384;48.112;18.418;2023-06-04T03:58:06;9.50;;;9.00;;
24259;SDS011;12384;48.112;18.418;2023-06-04T04:00:42;9.63;;;9.03;;
24259;SDS011;12384;48.112;18.418;2023-06-04T04:03:12;9.93;;;9.33;;
24259;SDS011;12384;48.112;18.418;2023-06-04T04:05:45;9.70;;;9.00;;
24259;SDS011;12384;48.112;18.418;2023-06-04T04:08:13;9.90;;;9.30;;
24259;SDS011;12384;48.112;18.418;2023-06-04T04:10:44;9.10;;;8.60;;
24259;SDS011;12384;48.112;18.418;2023-06-04T04:13:14;9.80;;;9.20;;
24259;SDS011;12384;48.112;18.418;2023-06-04T04:15:43;10.27;;;9.33;;
24259;SDS011;12384;48.112;18.418;2023-06-04T04:18:12;9.57;;;8.90;;
24259;SDS011;12384;48.112;18.418;2023-06-04T04:20:46;9.90;;;9.13;;
24259;SDS011;12384;48.112;18.418;2023-06-04T04:23:15;9.50;;;8.90;;
24259;SDS011;12384;48.112;18.418;2023-06-04T04:25:46;10.00;;;9.20;;
24259;SDS011;12384;48.112;18.418;2023-06-04T04:28:16;9.37;;;8.77;;
24259;SDS011;12384;48.112;18.418;2023-06-04T04:30:46;8.80;;;8.20;;
24259;SDS011;12384;48.112;18.418;2023-06-04T04:33:16;9.00;;;8.37;;
24259;SDS011;12384;48.112;18.418;2023-06-04T04:35:48;9.30;;;8.80;;
24259;SDS011;12384;48.112;18.418;2023-06-04T04:38:19;8.80;;;8.30;;
24259;SDS011;12384;48.112;18.418;2023-06-04T04:40:58;9.50;;;8.90;;
24259;SDS011;12384;48.112;18.418;2023-06-04T04:43:30;9.20;;;8.67;;
24259;SDS011;12384;48.112;18.418;2023-06-04T04:46:14;9.47;;;8.77;;
24259;SDS011;12384;48.112;18.418;2023-06-04T04:48:44;9.23;;;8.57;;
24259;SDS011;12384;48.112;18.418;2023-06-04T04:51:14;9.60;;;9.00;;
24259;SDS011;12384;48.112;18.418;2023-06-04T04:53:43;9.77;;;9.20;;
24259;SDS011;12384;48.112;18.418;2023-06-04T04:56:12;9.63;;;9.13;;
24259;SDS011;12384;48.112;18.418;2023-06-04T04:58:46;9.10;;;8.60;;
24259;SDS011;12384;48.112;18.418;2023-06-04T05:01:15;8.50;;;7.87;;
24259;SDS011;12384;48.112;18.418;2023-06-04T05:03:44;9.97;;;9.37;;
24259;SDS011;12384;48.112;18.418;2023-06-04T05:06:16;8.90;;;8.40;;
24259;SDS011;12384;48.112;18.418;2023-06-04T05:08:46;9.37;;;8.67;;
24259;SDS011;12384;48.112;18.418;2023-06-04T05:11:16;9.73;;;9.13;;
24259;SDS011;12384;48.112;18.418;2023-06-04T05:13:47;9.40;;;8.67;;
24259;SDS011;12384;48.112;18.418;2023-06-04T05:16:15;8.77;;;8.27;;
24259;SDS011;12384;48.112;18.418;2023-06-04T05:18:47;9.00;;;8.30;;
24259;SDS011;12384;48.112;18.418;2023-06-04T05:21:23;8.80;;;8.30;;
24259;SDS011;12384;48.112;18.418;2023-06-04T05:23:58;8.90;;;8.30;;
24259;SDS011;12384;48.112;18.418;2023-06-04T05:26:32;9.50;;;8.90;;
24259;SDS011;12384;48.112;18.418;2023-06-04T05:29:07;8.53;;;8.03;;
24259;SDS011;12384;48.112;18.418;2023-06-04T05:31:40;8.80;;;8.20;;
24259;SDS011;12384;48.112;18.418;2023-06-04T05:34:12;9.10;;;8.60;;
24259;SDS011;12384;48.112;18.418;2023-06-04T05:36:46;8.90;;;8.30;;
24259;SDS011;12384;48.112;18.418;2023-06-04T05:39:16;8.80;;;8.20;;
24259;SDS011;12384;48.112;18.418;2023-06-04T05:41:52;8.93;;;8.40;;
24259;SDS011;12384;48.112;18.418;2023-06-04T05:44:21;8.73;;;8.03;;
24259;SDS011;12384;48.112;18.418;2023-06-04T05:46:50;8.40;;;7.90;;
24259;SDS011;12384;48.112;18.418;2023-06-04T05:49:20;8.23;;;7.63;;
24259;SDS011;12384;48.112;18.418;2023-06-04T05:51:54;8.57;;;8.07;;
24259;SDS011;12384;48.112;18.418;2023-06-04T05:54:23;9.63;;;8.80;;
24259;SDS011;12384;48.112;18.418;2023-06-04T05:56:52;8.50;;;8.00;;
24259;SDS011;12384;48.112;18.418;2023-06-04T05:59:21;7.83;;;7.33;;
24259;SDS011;12384;48.112;18.418;2023-06-04T06:01:49;8.30;;;7.70;;
24259;SDS011;12384;48.112;18.418;2023-06-04T06:04:18;8.53;;;8.00;;
24259;SDS011;12384;48.112;18.418;2023-06-04T06:06:47;8.23;;;7.73;;
24259;SDS011;12384;48.112;18.418;2023-06-04T06:09:18;8.30;;;7.67;;
24259;SDS011;12384;48.112;18.418;2023-06-04T06:11:47;7.23;;;6.80;;
24259;SDS011;12384;48.112;18.418;2023-06-04T06:14:16;7.90;;;7.40;;
24259;SDS011;12384;48.112;18.418;2023-06-04T06:16:46;8.37;;;7.57;;
24259;SDS011;12384;48.112;18.418;2023-06-04T06:19:15;8.50;;;7.73;;
24259;SDS011;12384;48.112;18.418;2023-06-04T06:21:45;7.90;;;7.33;;
24259;SDS011;12384;48.112;18.418;2023-06-04T06:24:14;7.97;;;7.47;;
24259;SDS011;12384;48.112;18.418;2023-06-04T06:26:44;8.10;;;7.57;;
24259;SDS011;12384;48.112;18.418;2023-06-04T06:29:14;7.90;;;7.50;;
24259;SDS011;12384;48.112;18.418;2023-06-04T06:31:44;7.87;;;7.27;;
24259;SDS011;12384;48.112;18.418;2023-06-04T06:34:13;7.73;;;7.33;;
24259;SDS011;12384;48.112;18.418;2023-06-04T06:36:42;7.83;;;7.30;;
24259;SDS011;12384;48.112;18.418;2023-06-04T06:39:11;8.00;;;7.50;;
24259;SDS011;12384;48.112;18.418;2023-06-04T06:41:40;7.80;;;7.40;;
24259;SDS011;12384;48.112;18.418;2023-06-04T06:44:16;7.57;;;7.17;;
24259;SDS011;12384;48.112;18.418;2023-06-04T06:46:45;7.83;;;7.30;;
24259;SDS011;12384;48.112;18.418;2023-06-04T06:49:15;8.93;;;8.43;;
24259;SDS011;12384;48.112;18.418;2023-06-04T06:51:44;10.43;;;9.73;;
24259;SDS011;12384;48.112;18.418;2023-06-04T06:54:14;9.33;;;8.73;;
24259;SDS011;12384;48.112;18.418;2023-06-04T06:56:43;9.50;;;8.77;;
24259;SDS011;12384;48.112;18.418;2023-06-04T06:59:12;9.87;;;9.27;;
24259;SDS011;12384;48.112;18.418;2023-06-04T07:01:43;9.60;;;9.00;;
24259;SDS011;12384;48.112;18.418;2023-06-04T07:04:12;9.73;;;9.17;;
24259;SDS011;12384;48.112;18.418;2023-06-04T07:06:40;10.00;;;9.20;;
24259;SDS011;12384;48.112;18.418;2023-06-04T07:09:09;10.27;;;9.60;;
24259;SDS011;12384;48.112;18.418;2023-06-04T07:11:39;10.67;;;10.07;;
24259;SDS011;12384;48.112;18.418;2023-06-04T07:14:08;9.40;;;8.83;;
24259;SDS011;12384;48.112;18.418;2023-06-04T07:16:37;9.60;;;8.93;;
24259;SDS011;12384;48.112;18.418;2023-06-04T07:19:07;9.47;;;8.87;;
24259;SDS011;12384;48.112;18.418;2023-06-04T07:21:36;10.23;;;9.60;;
24259;SDS011;12384;48.112;18.418;2023-06-04T07:24:05;10.37;;;9.67;;
24259;SDS011;12384;48.112;18.418;2023-06-04T07:26:34;9.77;;;9.17;;
24259;SDS011;12384;48.112;18.418;2023-06-04T07:29:03;9.53;;;9.00;;
24259;SDS011;12384;48.112;18.418;2023-06-04T07:31:32;9.20;;;8.70;;
24259;SDS011;12384;48.112;18.418;2023-06-04T07:34:01;10.23;;;9.63;;
24259;SDS011;12384;48.112;18.418;2023-06-04T07:36:31;7.00;;;6.60;;
24259;SDS011;12384;48.112;18.418;2023-06-04T07:39:00;8.70;;;8.20;;
24259;SDS011;12384;48.112;18.418;2023-06-04T07:41:31;9.53;;;8.73;;
24259;SDS011;12384;48.112;18.418;2023-06-04T07:44:00;8.83;;;8.23;;
24259;SDS011;12384;48.112;18.418;2023-06-04T07:46:29;10.03;;;9.43;;
24259;SDS011;12384;48.112;18.418;2023-06-04T07:48:58;8.80;;;8.30;;
24259;SDS011;12384;48.112;18.418;2023-06-04T07:51:26;7.90;;;7.40;;
24259;SDS011;12384;48.112;18.418;2023-06-04T07:53:57;8.70;;;8.20;;
24259;SDS011;12384;48.112;18.418;2023-06-04T07:56:26;8.07;;;7.50;;
24259;SDS011;12384;48.112;18.418;2023-06-04T07:58:54;8.77;;;8.10;;
24259;SDS011;12384;48.112;18.418;2023-06-04T08:01:23;9.40;;;8.83;;
24259;SDS011;12384;48.112;18.418;2023-06-04T08:03:53;9.60;;;9.00;;
24259;SDS011;12384;48.112;18.418;2023-06-04T08:06:23;7.30;;;6.90;;
24259;SDS011;12384;48.112;18.418;2023-06-04T08:08:53;7.80;;;7.30;;
24259;SDS011;12384;48.112;18.418;2023-06-04T08:11:23;9.57;;;8.93;;
24259;SDS011;12384;48.112;18.418;2023-06-04T08:13:52;8.87;;;8.37;;
24259;SDS011;12384;48.112;18.418;2023-06-04T08:16:21;9.87;;;9.30;;
24259;SDS011;12384;48.112;18.418;2023-06-04T08:18:50;7.80;;;7.30;;
24259;SDS011;12384;48.112;18.418;2023-06-04T08:21:24;9.23;;;8.70;;
24259;SDS011;12384;48.112;18.418;2023-06-04T08:23:54;8.30;;;7.80;;
24259;SDS011;12384;48.112;18.418;2023-06-04T08:26:25;7.87;;;7.47;;
24259;SDS011;12384;48.112;18.418;2023-06-04T08:28:54;7.50;;;7.03;;
24259;SDS011;12384;48.112;18.418;2023-06-04T08:31:23;7.70;;;7.20;;
24259;SDS011;12384;48.112;18.418;2023-06-04T08:33:52;7.90;;;7.50;;
24259;SDS011;12384;48.112;18.418;2023-06-04T08:36:21;7.27;;;6.77;;
24259;SDS011;12384;48.112;18.418;2023-06-04T08:38:50;7.47;;;6.97;;
24259;SDS011;12384;48.112;18.418;2023-06-04T08:41:29;8.03;;;7.57;;
24259;SDS011;12384;48.112;18.418;2023-06-04T08:44:02;8.53;;;8.03;;
24259;SDS011;12384;48.112;18.418;2023-06-04T08:46:33;8.80;;;8.30;;
24259;SDS011;12384;48.112;18.418;2023-06-04T08:49:07;9.17;;;8.57;;
24259;SDS011;12384;48.112;18.418;2023-06-04T08:51:36;8.07;;;7.47;;
24259;SDS011;12384;48.112;18.418;2023-06-04T08:54:07;8.20;;;7.70;;
24259;SDS011;12384;48.112;18.418;2023-06-04T08:56:40;8.00;;;7.40;;
24259;SDS011;12384;48.112;18.418;2023-06-04T08:59:10;8.50;;;8.00;;
24259;SDS011;12384;48.112;18.418;2023-06-04T09:01:40;7.37;;;6.77;;
24259;SDS011;12384;48.112;18.418;2023-06-04T09:04:11;8.10;;;7.60;;
24259;SDS011;12384;48.112;18.418;2023-06-04T09:06:41;8.57;;;7.77;;
24259;SDS011;12384;48.112;18.418;2023-06-04T09:09:11;7.93;;;7.43;;
24259;SDS011;12384;48.112;18.418;2023-06-04T09:11:46;7.90;;;7.40;;
24259;SDS011;12384;48.112;18.418;2023-06-04T09:14:19;7.97;;;7.47;;
24259;SDS011;12384;48.112;18.418;2023-06-04T09:16:49;7.77;;;7.17;;
24259;SDS011;12384;48.112;18.418;2023-06-04T09:19:19;8.20;;;7.60;;
24259;SDS011;12384;48.112;18.418;2023-06-04T09:21:48;8.53;;;7.93;;
24259;SDS011;12384;48.112;18.418;2023-06-04T09:24:18;8.60;;;8.00;;
24259;SDS011;12384;48.112;18.418;2023-06-04T09:26:50;9.17;;;8.47;;
24259;SDS011;12384;48.112;18.418;2023-06-04T09:29:19;8.83;;;8.13;;
24259;SDS011;12384;48.112;18.418;2023-06-04T09:31:57;7.87;;;7.30;;
24259;SDS011;12384;48.112;18.418;2023-06-04T09:34:29;8.60;;;8.00;;
24259;SDS011;12384;48.112;18.418;2023-06-04T09:36:59;7.60;;;7.20;;
24259;SDS011;12384;48.112;18.418;2023-06-04T09:39:28;7.95;;;7.55;;
24259;SDS011;12384;48.112;18.418;2023-06-04T09:41:59;8.20;;;7.80;;
24259;SDS011;12384;48.112;18.418;2023-06-04T09:44:29;7.90;;;7.40;;
24259;SDS011;12384;48.112;18.418;2023-06-04T09:46:58;6.95;;;6.65;;
24259;SDS011;12384;48.112;18.418;2023-06-04T09:49:27;7.00;;;6.53;;
24259;SDS011;12384;48.112;18.418;2023-06-04T09:51:57;7.40;;;7.00;;
24259;SDS011;12384;48.112;18.418;2023-06-04T09:54:34;7.70;;;7.20;;
24259;SDS011;12384;48.112;18.418;2023-06-04T09:57:13;8.35;;;7.85;;
24259;SDS011;12384;48.112;18.418;2023-06-04T09:59:44;7.37;;;6.87;;
24259;SDS011;12384;48.112;18.418;2023-06-04T10:02:15;7.70;;;7.30;;
24259;SDS011;12384;48.112;18.418;2023-06-04T10:04:48;7.25;;;6.80;;
24259;SDS011;12384;48.112;18.418;2023-06-04T10:07:22;8.68;;;7.90;;
24259;SDS011;12384;48.112;18.418;2023-06-04T10:09:52;7.70;;;7.13;;
24259;SDS011;12384;48.112;18.418;2023-06-04T10:12:23;7.20;;;6.80;;
24259;SDS011;12384;48.112;18.418;2023-06-04T10:14:59;7.32;;;6.88;;
24259;SDS011;12384;48.112;18.418;2023-06-04T10:17:30;7.10;;;6.70;;
24259;SDS011;12384;48.112;18.418;2023-06-04T10:20:01;6.82;;;6.43;;
24259;SDS011;12384;48.112;18.418;2023-06-04T10:22:32;7.30;;;6.90;;
24259;SDS011;12384;48.112;18.418;2023-06-04T10:25:02;7.90;;;7.50;;
24259;SDS011;12384;48.112;18.418;2023-06-04T10:27:32;7.60;;;7.10;;
24259;SDS011;12384;48.112;18.418;2023-06-04T10:30:03;7.85;;;7.35;;
24259;SDS011;12384;48.112;18.418;2023-06-04T10:32:33;7.50;;;7.10;;
24259;SDS011;12384;48.112;18.418;2023-06-04T10:35:03;7.15;;;6.75;;
24259;SDS011;12384;48.112;18.418;2023-06-04T10:37:34;6.90;;;6.50;;
24259;SDS011;12384;48.112;18.418;2023-06-04T10:40:04;8.32;;;7.82;;
24259;SDS011;12384;48.112;18.418;2023-06-04T10:42:40;7.90;;;7.50;;
24259;SDS011;12384;48.112;18.418;2023-06-04T10:45:10;8.30;;;7.70;;
24259;SDS011;12384;48.112;18.418;2023-06-04T10:47:39;8.23;;;7.73;;
24259;SDS011;12384;48.112;18.418;2023-06-04T10:50:09;7.53;;;7.07;;
24259;SDS011;12384;48.112;18.418;2023-06-04T10:52:51;7.65;;;7.22;;
24259;SDS011;12384;48.112;18.418;2023-06-04T10:55:20;7.07;;;6.68;;
24259;SDS011;12384;48.112;18.418;2023-06-04T10:57:54;7.57;;;7.07;;
24259;SDS011;12384;48.112;18.418;2023-06-04T11:00:34;7.93;;;7.17;;
24259;SDS011;12384;48.112;18.418;2023-06-04T11:03:04;7.88;;;7.47;;
24259;SDS011;12384;48.112;18.418;2023-06-04T11:05:35;7.45;;;7.00;;
24259;SDS011;12384;48.112;18.418;2023-06-04T11:08:05;8.45;;;7.95;;
24259;SDS011;12384;48.112;18.418;2023-06-04T11:10:35;12.35;;;11.35;;
24259;SDS011;12384;48.112;18.418;2023-06-04T11:13:06;8.13;;;7.53;;
24259;SDS011;12384;48.112;18.418;2023-06-04T11:15:39;8.05;;;7.57;;
24259;SDS011;12384;48.112;18.418;2023-06-04T11:18:13;7.43;;;7.03;;
24259;SDS011;12384;48.112;18.418;2023-06-04T11:20:43;7.22;;;6.82;;
24259;SDS011;12384;48.112;18.418;2023-06-04T11:23:12;6.82;;;6.43;;
24259;SDS011;12384;48.112;18.418;2023-06-04T11:25:42;6.60;;;6.30;;
24259;SDS011;12384;48.112;18.418;2023-06-04T11:28:17;7.00;;;6.60;;
24259;SDS011;12384;48.112;18.418;2023-06-04T11:30:55;6.47;;;6.15;;
24259;SDS011;12384;48.112;18.418;2023-06-04T11:33:25;6.90;;;6.50;;
24259;SDS011;12384;48.112;18.418;2023-06-04T11:35:53;6.95;;;6.55;;
24259;SDS011;12384;48.112;18.418;2023-06-04T11:38:22;6.90;;;6.50;;
24259;SDS011;12384;48.112;18.418;2023-06-04T11:40:55;6.85;;;6.35;;
24259;SDS011;12384;48.112;18.418;2023-06-04T11:43:30;6.32;;;6.03;;
24259;SDS011;12384;48.112;18.418;2023-06-04T11:46:05;6.40;;;6.10;;
24259;SDS011;12384;48.112;18.418;2023-06-04T11:48:37;6.40;;;6.10;;
24259;SDS011;12384;48.112;18.418;2023-06-04T11:51:06;6.20;;;5.90;;
24259;SDS011;12384;48.112;18.418;2023-06-04T11:53:36;6.72;;;6.32;;
24259;SDS011;12384;48.112;18.418;2023-06-04T11:56:06;7.00;;;6.60;;
24259;SDS011;12384;48.112;18.418;2023-06-04T11:58:36;8.43;;;7.93;;
24259;SDS011;12384;48.112;18.418;2023-06-04T12:01:07;8.15;;;7.65;;
24259;SDS011;12384;48.112;18.418;2023-06-04T12:03:37;8.23;;;7.72;;
24259;SDS011;12384;48.112;18.418;2023-06-04T12:06:13;8.45;;;7.95;;
24259;SDS011;12384;48.112;18.418;2023-06-04T12:08:47;8.77;;;8.27;;
24259;SDS011;12384;48.112;18.418;2023-06-04T12:11:24;6.90;;;6.50;;
24259;SDS011;12384;48.112;18.418;2023-06-04T12:13:56;7.25;;;6.85;;
24259;SDS011;12384;48.112;18.418;2023-06-04T12:16:27;7.18;;;6.78;;
24259;SDS011;12384;48.112;18.418;2023-06-04T12:19:06;7.05;;;6.68;;
24259;SDS011;12384;48.112;18.418;2023-06-04T12:21:36;6.55;;;6.25;;
24259;SDS011;12384;48.112;18.418;2023-06-04T12:24:07;7.50;;;6.28;;
24259;SDS011;12384;48.112;18.418;2023-06-04T12:26:37;7.53;;;7.03;;
24259;SDS011;12384;48.112;18.418;2023-06-04T12:29:09;6.70;;;6.40;;
24259;SDS011;12384;48.112;18.418;2023-06-04T12:31:40;6.85;;;6.43;;
24259;SDS011;12384;48.112;18.418;2023-06-04T12:34:10;6.68;;;6.30;;
24259;SDS011;12384;48.112;18.418;2023-06-04T12:36:39;7.53;;;7.13;;
24259;SDS011;12384;48.112;18.418;2023-06-04T12:39:09;7.38;;;6.97;;
24259;SDS011;12384;48.112;18.418;2023-06-04T12:41:38;7.03;;;6.63;;
24259;SDS011;12384;48.112;18.418;2023-06-04T12:44:15;7.85;;;7.35;;
24259;SDS011;12384;48.112;18.418;2023-06-04T12:46:44;7.75;;;7.15;;
24259;SDS011;12384;48.112;18.418;2023-06-04T12:49:13;8.73;;;7.97;;
24259;SDS011;12384;48.112;18.418;2023-06-04T12:51:41;7.90;;;7.30;;
24259;SDS011;12384;48.112;18.418;2023-06-04T12:54:10;7.13;;;6.72;;
24259;SDS011;12384;48.112;18.418;2023-06-04T12:56:39;8.02;;;7.53;;
24259;SDS011;12384;48.112;18.418;2023-06-04T12:59:08;7.18;;;6.68;;
24259;SDS011;12384;48.112;18.418;2023-06-04T13:01:39;7.13;;;6.72;;
24259;SDS011;12384;48.112;18.418;2023-06-04T13:04:08;6.75;;;6.35;;
24259;SDS011;12384;48.112;18.418;2023-06-04T13:06:37;6.90;;;6.45;;
24259;SDS011;12384;48.112;18.418;2023-06-04T13:09:06;7.00;;;6.40;;
24259;SDS011;12384;48.112;18.418;2023-06-04T13:11:37;7.05;;;6.65;;
24259;SDS011;12384;48.112;18.418;2023-06-04T13:14:07;7.22;;;6.78;;
24259;SDS011;12384;48.112;18.418;2023-06-04T13:16:38;6.85;;;6.50;;
24259;SDS011;12384;48.112;18.418;2023-06-04T13:19:07;7.65;;;7.25;;
24259;SDS011;12384;48.112;18.418;2023-06-04T13:21:37;7.70;;;7.20;;
24259;SDS011;12384;48.112;18.418;2023-06-04T13:24:09;7.65;;;7.13;;
24259;SDS011;12384;48.112;18.418;2023-06-04T13:26:38;7.70;;;7.22;;
24259;SDS011;12384;48.112;18.418;2023-06-04T13:29:09;7.22;;;6.82;;
24259;SDS011;12384;48.112;18.418;2023-06-04T13:31:40;7.93;;;7.32;;
24259;SDS011;12384;48.112;18.418;2023-06-04T13:34:09;7.95;;;7.50;;
24259;SDS011;12384;48.112;18.418;2023-06-04T13:36:53;7.72;;;7.22;;
24259;SDS011;12384;48.112;18.418;2023-06-04T13:39:23;7.65;;;7.25;;
24259;SDS011;12384;48.112;18.418;2023-06-04T13:41:51;7.47;;;7.07;;
24259;SDS011;12384;48.112;18.418;2023-06-04T13:44:21;8.18;;;7.68;;
24259;SDS011;12384;48.112;18.418;2023-06-04T13:46:54;7.28;;;6.88;;
24259;SDS011;12384;48.112;18.418;2023-06-04T13:49:23;7.53;;;7.13;;
24259;SDS011;12384;48.112;18.418;2023-06-04T13:51:52;8.20;;;7.50;;
24259;SDS011;12384;48.112;18.418;2023-06-04T13:54:21;7.80;;;7.30;;
24259;SDS011;12384;48.112;18.418;2023-06-04T13:56:49;7.88;;;7.30;;
24259;SDS011;12384;48.112;18.418;2023-06-04T13:59:18;7.78;;;7.28;;
24259;SDS011;12384;48.112;18.418;2023-06-04T14:01:47;7.72;;;7.13;;
24259;SDS011;12384;48.112;18.418;2023-06-04T14:04:17;7.00;;;6.60;;
24259;SDS011;12384;48.112;18.418;2023-06-04T14:06:46;6.78;;;6.38;;
24259;SDS011;12384;48.112;18.418;2023-06-04T14:09:15;7.30;;;6.88;;
24259;SDS011;12384;48.112;18.418;2023-06-04T14:11:46;6.97;;;6.57;;
24259;SDS011;12384;48.112;18.418;2023-06-04T14:14:17;7.20;;;6.70;;
24259;SDS011;12384;48.112;18.418;2023-06-04T14:16:46;7.13;;;6.63;;
24259;SDS011;12384;48.112;18.418;2023-06-04T14:19:16;7.40;;;6.80;;
24259;SDS011;12384;48.112;18.418;2023-06-04T14:21:49;6.90;;;6.50;;
24259;SDS011;12384;48.112;18.418;2023-06-04T14:24:18;8.63;;;8.03;;
24259;SDS011;12384;48.112;18.418;2023-06-04T14:26:47;8.67;;;8.17;;
24259;SDS011;12384;48.112;18.418;2023-06-04T14:29:16;7.20;;;6.80;;
24259;SDS011;12384;48.112;18.418;2023-06-04T14:31:44;8.10;;;7.27;;
24259;SDS011;12384;48.112;18.418;2023-06-04T14:34:13;8.43;;;7.73;;
24259;SDS011;12384;48.112;18.418;2023-06-04T14:36:43;8.13;;;7.53;;
24259;SDS011;12384;48.112;18.418;2023-06-04T14:39:13;7.10;;;6.70;;
24259;SDS011;12384;48.112;18.418;2023-06-04T14:41:42;7.13;;;6.73;;
24259;SDS011;12384;48.112;18.418;2023-06-04T14:44:11;7.77;;;7.17;;
24259;SDS011;12384;48.112;18.418;2023-06-04T14:46:40;7.30;;;6.90;;
24259;SDS011;12384;48.112;18.418;2023-06-04T14:49:09;7.37;;;6.97;;
24259;SDS011;12384;48.112;18.418;2023-06-04T14:51:38;7.33;;;6.93;;